sensor_id;sensor_type;location;lat;lon;timestamp;P1;durP1;ratioP1;P2;durP2;ratioP2
21114;SDS011;10715;48.546;9.896;2022-10-16T00:01:19;1.83;;;1.33;;
21114;SDS011;10715;48.546;9.896;2022-10-16T00:03:48;2.73;;;1.47;;
21114;SDS011;10715;48.546;9.896;2022-10-16T00:06:16;3.07;;;1.43;;
21114;SDS011;10715;48.546;9.896;2022-10-16T00:08:42;2.90;;;1.17;;
21114;SDS011;10715;48.546;9.896;2022-10-16T00:11:10;4.60;;;1.10;;
21114;SDS011;10715;48.546;9.896;2022-10-16T00:13:38;4.53;;;1.67;;
21114;SDS011;10715;48.546;9.896;2022-10-16T00:16:05;1.10;;;0.80;;
21114;SDS011;10715;48.546;9.896;2022-10-16T00:18:32;4.73;;;1.30;;
21114;SDS011;10715;48.546;9.896;2022-10-16T00:21:03;2.43;;;1.10;;
21114;SDS011;10715;48.546;9.896;2022-10-16T00:23:30;1.10;;;0.87;;
21114;SDS011;10715;48.546;9.896;2022-10-16T00:26:01;2.57;;;1.37;;
21114;SDS011;10715;48.546;9.896;2022-10-16T00:28:30;1.50;;;0.83;;
21114;SDS011;10715;48.546;9.896;2022-10-16T00:30:56;2.80;;;0.73;;
21114;SDS011;10715;48.546;9.896;2022-10-16T00:33:22;4.10;;;1.10;;
21114;SDS011;10715;48.546;9.896;2022-10-16T00:35:48;3.57;;;0.90;;
21114;SDS011;10715;48.546;9.896;2022-10-16T00:38:14;1.73;;;0.80;;
21114;SDS011;10715;48.546;9.896;2022-10-16T00:40:43;1.20;;;1.10;;
21114;SDS011;10715;48.546;9.896;2022-10-16T00:43:13;1.17;;;0.97;;
21114;SDS011;10715;48.546;9.896;2022-10-16T00:45:56;2.90;;;0.90;;
21114;SDS011;10715;48.546;9.896;2022-10-16T00:48:22;3.10;;;1.10;;
21114;SDS011;10715;48.546;9.896;2022-10-16T00:50:48;1.53;;;1.43;;
21114;SDS011;10715;48.546;9.896;2022-10-16T00:53:14;5.40;;;1.00;;
21114;SDS011;10715;48.546;9.896;2022-10-16T00:55:41;1.70;;;1.00;;
21114;SDS011;10715;48.546;9.896;2022-10-16T00:58:07;1.73;;;1.23;;
21114;SDS011;10715;48.546;9.896;2022-10-16T01:00:33;5.53;;;0.73;;
21114;SDS011;10715;48.546;9.896;2022-10-16T01:02:59;3.97;;;1.17;;
21114;SDS011;10715;48.546;9.896;2022-10-16T01:05:30;2.70;;;0.70;;
21114;SDS011;10715;48.546;9.896;2022-10-16T01:13:57;2.93;;;0.60;;
21114;SDS011;10715;48.546;9.896;2022-10-16T01:22:07;2.23;;;0.90;;
21114;SDS011;10715;48.546;9.896;2022-10-16T01:27:14;1.10;;;0.87;;
21114;SDS011;10715;48.546;9.896;2022-10-16T01:38:05;2.90;;;1.00;;
21114;SDS011;10715;48.546;9.896;2022-10-16T01:40:42;1.50;;;0.83;;
21114;SDS011;10715;48.546;9.896;2022-10-16T01:43:12;2.47;;;1.07;;
21114;SDS011;10715;48.546;9.896;2022-10-16T01:45:42;2.10;;;0.90;;
21114;SDS011;10715;48.546;9.896;2022-10-16T01:48:12;3.13;;;0.80;;
21114;SDS011;10715;48.546;9.896;2022-10-16T01:50:40;2.27;;;1.00;;
21114;SDS011;10715;48.546;9.896;2022-10-16T01:53:08;8.53;;;1.20;;
21114;SDS011;10715;48.546;9.896;2022-10-16T01:55:38;2.20;;;1.60;;
21114;SDS011;10715;48.546;9.896;2022-10-16T01:58:10;1.60;;;1.10;;
21114;SDS011;10715;48.546;9.896;2022-10-16T02:00:39;1.67;;;1.10;;
21114;SDS011;10715;48.546;9.896;2022-10-16T02:03:07;1.67;;;1.40;;
21114;SDS011;10715;48.546;9.896;2022-10-16T02:05:36;2.03;;;1.80;;
21114;SDS011;10715;48.546;9.896;2022-10-16T02:08:06;2.30;;;1.63;;
21114;SDS011;10715;48.546;9.896;2022-10-16T02:10:32;2.27;;;1.50;;
21114;SDS011;10715;48.546;9.896;2022-10-16T02:15:32;1.30;;;1.20;;
21114;SDS011;10715;48.546;9.896;2022-10-16T02:17:57;2.60;;;1.20;;
21114;SDS011;10715;48.546;9.896;2022-10-16T02:20:25;1.43;;;0.80;;
21114;SDS011;10715;48.546;9.896;2022-10-16T02:22:53;3.00;;;1.00;;
21114;SDS011;10715;48.546;9.896;2022-10-16T02:25:29;1.33;;;1.10;;
21114;SDS011;10715;48.546;9.896;2022-10-16T02:28:08;1.47;;;0.80;;
21114;SDS011;10715;48.546;9.896;2022-10-16T02:30:46;3.10;;;1.10;;
21114;SDS011;10715;48.546;9.896;2022-10-16T02:33:20;1.00;;;0.70;;
21114;SDS011;10715;48.546;9.896;2022-10-16T02:35:47;4.93;;;0.60;;
21114;SDS011;10715;48.546;9.896;2022-10-16T02:38:16;1.63;;;0.90;;
21114;SDS011;10715;48.546;9.896;2022-10-16T02:40:43;2.20;;;0.97;;
21114;SDS011;10715;48.546;9.896;2022-10-16T02:43:10;1.20;;;1.00;;
21114;SDS011;10715;48.546;9.896;2022-10-16T02:45:36;1.30;;;0.90;;
21114;SDS011;10715;48.546;9.896;2022-10-16T02:48:02;1.97;;;1.50;;
21114;SDS011;10715;48.546;9.896;2022-10-16T02:50:28;6.53;;;1.77;;
21114;SDS011;10715;48.546;9.896;2022-10-16T02:52:54;2.50;;;1.60;;
21114;SDS011;10715;48.546;9.896;2022-10-16T02:55:20;3.80;;;1.23;;
21114;SDS011;10715;48.546;9.896;2022-10-16T02:57:45;4.33;;;1.70;;
21114;SDS011;10715;48.546;9.896;2022-10-16T03:00:12;1.53;;;1.20;;
21114;SDS011;10715;48.546;9.896;2022-10-16T03:02:39;1.37;;;1.27;;
21114;SDS011;10715;48.546;9.896;2022-10-16T03:05:05;4.80;;;1.50;;
21114;SDS011;10715;48.546;9.896;2022-10-16T03:07:31;2.47;;;1.20;;
21114;SDS011;10715;48.546;9.896;2022-10-16T03:09:57;1.57;;;1.37;;
21114;SDS011;10715;48.546;9.896;2022-10-16T03:12:25;1.70;;;1.60;;
21114;SDS011;10715;48.546;9.896;2022-10-16T03:14:52;11.07;;;2.03;;
21114;SDS011;10715;48.546;9.896;2022-10-16T03:17:18;2.20;;;1.97;;
21114;SDS011;10715;48.546;9.896;2022-10-16T03:19:43;1.60;;;1.50;;
21114;SDS011;10715;48.546;9.896;2022-10-16T03:22:09;1.70;;;1.60;;
21114;SDS011;10715;48.546;9.896;2022-10-16T03:24:35;4.00;;;1.73;;
21114;SDS011;10715;48.546;9.896;2022-10-16T03:27:01;10.33;;;2.77;;
21114;SDS011;10715;48.546;9.896;2022-10-16T03:29:27;14.67;;;2.30;;
21114;SDS011;10715;48.546;9.896;2022-10-16T03:31:54;2.33;;;2.13;;
21114;SDS011;10715;48.546;9.896;2022-10-16T03:34:20;3.40;;;2.50;;
21114;SDS011;10715;48.546;9.896;2022-10-16T03:36:46;5.33;;;1.63;;
21114;SDS011;10715;48.546;9.896;2022-10-16T03:39:12;1.60;;;1.47;;
21114;SDS011;10715;48.546;9.896;2022-10-16T03:41:38;2.33;;;2.13;;
21114;SDS011;10715;48.546;9.896;2022-10-16T03:44:03;1.90;;;1.63;;
21114;SDS011;10715;48.546;9.896;2022-10-16T03:46:29;9.27;;;3.50;;
21114;SDS011;10715;48.546;9.896;2022-10-16T03:48:55;3.20;;;2.90;;
21114;SDS011;10715;48.546;9.896;2022-10-16T03:51:21;4.90;;;2.83;;
21114;SDS011;10715;48.546;9.896;2022-10-16T03:53:46;2.90;;;2.70;;
21114;SDS011;10715;48.546;9.896;2022-10-16T03:56:12;7.30;;;2.50;;
21114;SDS011;10715;48.546;9.896;2022-10-16T03:58:38;3.13;;;2.40;;
21114;SDS011;10715;48.546;9.896;2022-10-16T04:01:04;3.47;;;2.30;;
21114;SDS011;10715;48.546;9.896;2022-10-16T04:03:29;3.23;;;2.93;;
21114;SDS011;10715;48.546;9.896;2022-10-16T04:05:55;4.20;;;2.30;;
21114;SDS011;10715;48.546;9.896;2022-10-16T04:08:21;3.10;;;2.90;;
21114;SDS011;10715;48.546;9.896;2022-10-16T04:10:47;2.30;;;2.20;;
21114;SDS011;10715;48.546;9.896;2022-10-16T04:13:13;2.17;;;2.07;;
21114;SDS011;10715;48.546;9.896;2022-10-16T04:15:38;5.00;;;2.63;;
21114;SDS011;10715;48.546;9.896;2022-10-16T04:18:04;2.80;;;2.60;;
21114;SDS011;10715;48.546;9.896;2022-10-16T04:20:30;6.70;;;2.97;;
21114;SDS011;10715;48.546;9.896;2022-10-16T04:22:56;3.30;;;3.10;;
21114;SDS011;10715;48.546;9.896;2022-10-16T04:25:22;3.47;;;3.17;;
21114;SDS011;10715;48.546;9.896;2022-10-16T04:27:48;5.03;;;3.77;;
21114;SDS011;10715;48.546;9.896;2022-10-16T04:30:13;4.43;;;4.13;;
21114;SDS011;10715;48.546;9.896;2022-10-16T04:32:40;4.90;;;4.53;;
21114;SDS011;10715;48.546;9.896;2022-10-16T04:35:06;8.20;;;4.43;;
21114;SDS011;10715;48.546;9.896;2022-10-16T04:37:32;5.57;;;5.03;;
21114;SDS011;10715;48.546;9.896;2022-10-16T04:39:58;4.80;;;4.40;;
21114;SDS011;10715;48.546;9.896;2022-10-16T04:42:23;7.57;;;5.03;;
21114;SDS011;10715;48.546;9.896;2022-10-16T04:44:49;12.03;;;4.60;;
21114;SDS011;10715;48.546;9.896;2022-10-16T04:47:15;4.53;;;4.17;;
21114;SDS011;10715;48.546;9.896;2022-10-16T04:49:41;3.20;;;2.97;;
21114;SDS011;10715;48.546;9.896;2022-10-16T04:52:06;3.70;;;3.40;;
21114;SDS011;10715;48.546;9.896;2022-10-16T04:54:34;5.97;;;4.90;;
21114;SDS011;10715;48.546;9.896;2022-10-16T04:57:00;5.77;;;4.13;;
21114;SDS011;10715;48.546;9.896;2022-10-16T04:59:26;11.80;;;4.90;;
21114;SDS011;10715;48.546;9.896;2022-10-16T05:01:52;3.70;;;3.50;;
21114;SDS011;10715;48.546;9.896;2022-10-16T05:04:17;5.23;;;4.60;;
21114;SDS011;10715;48.546;9.896;2022-10-16T05:06:43;7.87;;;4.67;;
21114;SDS011;10715;48.546;9.896;2022-10-16T05:09:09;5.50;;;4.10;;
21114;SDS011;10715;48.546;9.896;2022-10-16T05:11:35;5.83;;;4.90;;
21114;SDS011;10715;48.546;9.896;2022-10-16T05:14:01;4.80;;;4.40;;
21114;SDS011;10715;48.546;9.896;2022-10-16T05:16:27;5.33;;;5.03;;
21114;SDS011;10715;48.546;9.896;2022-10-16T05:18:53;7.00;;;5.00;;
21114;SDS011;10715;48.546;9.896;2022-10-16T05:21:20;5.53;;;5.00;;
21114;SDS011;10715;48.546;9.896;2022-10-16T05:23:46;6.30;;;5.07;;
21114;SDS011;10715;48.546;9.896;2022-10-16T05:26:12;10.60;;;5.43;;
21114;SDS011;10715;48.546;9.896;2022-10-16T05:28:37;8.43;;;5.47;;
21114;SDS011;10715;48.546;9.896;2022-10-16T05:31:04;8.10;;;4.60;;
21114;SDS011;10715;48.546;9.896;2022-10-16T05:33:34;8.83;;;4.70;;
21114;SDS011;10715;48.546;9.896;2022-10-16T05:36:01;4.20;;;3.97;;
21114;SDS011;10715;48.546;9.896;2022-10-16T05:38:32;4.13;;;3.83;;
21114;SDS011;10715;48.546;9.896;2022-10-16T05:40:58;10.37;;;5.10;;
21114;SDS011;10715;48.546;9.896;2022-10-16T05:43:26;3.43;;;2.70;;
21114;SDS011;10715;48.546;9.896;2022-10-16T05:45:57;3.60;;;1.90;;
21114;SDS011;10715;48.546;9.896;2022-10-16T05:48:24;2.57;;;2.37;;
21114;SDS011;10715;48.546;9.896;2022-10-16T05:50:57;3.03;;;2.30;;
21114;SDS011;10715;48.546;9.896;2022-10-16T05:53:30;4.20;;;3.80;;
21114;SDS011;10715;48.546;9.896;2022-10-16T05:55:57;7.00;;;3.63;;
21114;SDS011;10715;48.546;9.896;2022-10-16T05:58:24;5.80;;;3.73;;
21114;SDS011;10715;48.546;9.896;2022-10-16T06:00:58;6.03;;;4.30;;
21114;SDS011;10715;48.546;9.896;2022-10-16T06:03:25;4.00;;;3.70;;
21114;SDS011;10715;48.546;9.896;2022-10-16T06:05:51;11.87;;;4.20;;
21114;SDS011;10715;48.546;9.896;2022-10-16T06:08:18;5.60;;;4.57;;
21114;SDS011;10715;48.546;9.896;2022-10-16T06:10:45;5.73;;;4.63;;
21114;SDS011;10715;48.546;9.896;2022-10-16T06:13:11;4.30;;;4.03;;
21114;SDS011;10715;48.546;9.896;2022-10-16T06:15:38;6.30;;;5.10;;
21114;SDS011;10715;48.546;9.896;2022-10-16T06:18:06;4.33;;;4.03;;
21114;SDS011;10715;48.546;9.896;2022-10-16T06:20:33;7.60;;;3.20;;
21114;SDS011;10715;48.546;9.896;2022-10-16T06:22:59;3.40;;;3.10;;
21114;SDS011;10715;48.546;9.896;2022-10-16T06:25:25;5.07;;;3.60;;
21114;SDS011;10715;48.546;9.896;2022-10-16T06:27:51;3.90;;;3.60;;
21114;SDS011;10715;48.546;9.896;2022-10-16T06:30:16;3.67;;;3.37;;
21114;SDS011;10715;48.546;9.896;2022-10-16T06:32:42;4.00;;;3.70;;
21114;SDS011;10715;48.546;9.896;2022-10-16T06:35:08;7.07;;;3.97;;
21114;SDS011;10715;48.546;9.896;2022-10-16T06:37:33;3.40;;;2.60;;
21114;SDS011;10715;48.546;9.896;2022-10-16T06:39:59;3.60;;;3.30;;
21114;SDS011;10715;48.546;9.896;2022-10-16T06:42:25;3.90;;;3.60;;
21114;SDS011;10715;48.546;9.896;2022-10-16T06:44:51;3.07;;;2.87;;
21114;SDS011;10715;48.546;9.896;2022-10-16T06:47:17;2.37;;;2.17;;
21114;SDS011;10715;48.546;9.896;2022-10-16T06:49:42;4.20;;;3.67;;
21114;SDS011;10715;48.546;9.896;2022-10-16T06:52:08;20.47;;;3.90;;
21114;SDS011;10715;48.546;9.896;2022-10-16T06:54:34;6.20;;;4.00;;
21114;SDS011;10715;48.546;9.896;2022-10-16T06:56:59;4.17;;;3.70;;
21114;SDS011;10715;48.546;9.896;2022-10-16T06:59:26;14.10;;;2.83;;
21114;SDS011;10715;48.546;9.896;2022-10-16T07:01:52;3.87;;;3.20;;
21114;SDS011;10715;48.546;9.896;2022-10-16T07:04:18;3.33;;;3.00;;
21114;SDS011;10715;48.546;9.896;2022-10-16T07:06:44;8.20;;;3.40;;
21114;SDS011;10715;48.546;9.896;2022-10-16T07:09:10;3.30;;;3.00;;
21114;SDS011;10715;48.546;9.896;2022-10-16T07:11:37;6.73;;;2.50;;
21114;SDS011;10715;48.546;9.896;2022-10-16T07:14:04;5.00;;;2.50;;
21114;SDS011;10715;48.546;9.896;2022-10-16T07:16:30;3.03;;;2.73;;
21114;SDS011;10715;48.546;9.896;2022-10-16T07:19:00;2.50;;;2.13;;
21114;SDS011;10715;48.546;9.896;2022-10-16T07:21:28;6.83;;;2.43;;
21114;SDS011;10715;48.546;9.896;2022-10-16T07:23:57;4.20;;;3.17;;
21114;SDS011;10715;48.546;9.896;2022-10-16T07:26:25;5.20;;;4.70;;
21114;SDS011;10715;48.546;9.896;2022-10-16T07:28:52;4.67;;;4.27;;
21114;SDS011;10715;48.546;9.896;2022-10-16T07:31:18;2.93;;;2.73;;
21114;SDS011;10715;48.546;9.896;2022-10-16T07:33:46;3.13;;;2.77;;
21114;SDS011;10715;48.546;9.896;2022-10-16T07:36:13;38.63;;;30.63;;
21114;SDS011;10715;48.546;9.896;2022-10-16T07:38:43;28.80;;;25.47;;
21114;SDS011;10715;48.546;9.896;2022-10-16T07:41:10;16.03;;;14.30;;
21114;SDS011;10715;48.546;9.896;2022-10-16T07:43:45;7.10;;;6.50;;
21114;SDS011;10715;48.546;9.896;2022-10-16T07:46:15;2.50;;;2.40;;
21114;SDS011;10715;48.546;9.896;2022-10-16T07:48:41;4.93;;;2.10;;
21114;SDS011;10715;48.546;9.896;2022-10-16T07:51:11;8.83;;;1.73;;
21114;SDS011;10715;48.546;9.896;2022-10-16T07:53:37;2.03;;;1.73;;
21114;SDS011;10715;48.546;9.896;2022-10-16T07:56:04;3.23;;;2.07;;
21114;SDS011;10715;48.546;9.896;2022-10-16T07:58:31;1.80;;;1.63;;
21114;SDS011;10715;48.546;9.896;2022-10-16T08:00:58;8.93;;;2.70;;
21114;SDS011;10715;48.546;9.896;2022-10-16T08:03:24;10.57;;;6.70;;
21114;SDS011;10715;48.546;9.896;2022-10-16T08:05:50;5.13;;;4.73;;
21114;SDS011;10715;48.546;9.896;2022-10-16T08:08:16;4.97;;;2.70;;
21114;SDS011;10715;48.546;9.896;2022-10-16T08:10:42;5.17;;;2.30;;
21114;SDS011;10715;48.546;9.896;2022-10-16T08:13:08;1.97;;;1.43;;
21114;SDS011;10715;48.546;9.896;2022-10-16T08:15:34;1.47;;;1.00;;
21114;SDS011;10715;48.546;9.896;2022-10-16T08:18:04;1.30;;;1.00;;
21114;SDS011;10715;48.546;9.896;2022-10-16T08:20:31;1.13;;;0.87;;
21114;SDS011;10715;48.546;9.896;2022-10-16T08:22:58;1.63;;;1.40;;
21114;SDS011;10715;48.546;9.896;2022-10-16T08:25:25;1.20;;;1.00;;
21114;SDS011;10715;48.546;9.896;2022-10-16T08:27:51;2.17;;;1.20;;
21114;SDS011;10715;48.546;9.896;2022-10-16T08:30:17;1.30;;;1.20;;
21114;SDS011;10715;48.546;9.896;2022-10-16T08:32:44;2.77;;;2.33;;
21114;SDS011;10715;48.546;9.896;2022-10-16T08:35:11;3.93;;;1.67;;
21114;SDS011;10715;48.546;9.896;2022-10-16T08:37:38;1.87;;;1.37;;
21114;SDS011;10715;48.546;9.896;2022-10-16T08:40:05;1.90;;;1.80;;
21114;SDS011;10715;48.546;9.896;2022-10-16T08:50:49;2.57;;;0.87;;
21114;SDS011;10715;48.546;9.896;2022-10-16T08:53:28;1.60;;;0.80;;
21114;SDS011;10715;48.546;9.896;2022-10-16T08:55:58;1.40;;;1.30;;
21114;SDS011;10715;48.546;9.896;2022-10-16T08:58:28;2.10;;;1.33;;
21114;SDS011;10715;48.546;9.896;2022-10-16T09:00:58;1.30;;;1.00;;
21114;SDS011;10715;48.546;9.896;2022-10-16T09:09:41;1.13;;;0.90;;
21114;SDS011;10715;48.546;9.896;2022-10-16T09:17:35;6.13;;;1.13;;
21114;SDS011;10715;48.546;9.896;2022-10-16T09:23:14;3.63;;;1.13;;
21114;SDS011;10715;48.546;9.896;2022-10-16T09:25:44;3.37;;;0.90;;
21114;SDS011;10715;48.546;9.896;2022-10-16T09:28:12;1.57;;;1.47;;
21114;SDS011;10715;48.546;9.896;2022-10-16T09:30:38;1.20;;;1.00;;
21114;SDS011;10715;48.546;9.896;2022-10-16T09:33:04;2.33;;;1.03;;
21114;SDS011;10715;48.546;9.896;2022-10-16T09:38:05;1.40;;;0.90;;
21114;SDS011;10715;48.546;9.896;2022-10-16T09:40:33;2.17;;;1.20;;
21114;SDS011;10715;48.546;9.896;2022-10-16T09:43:02;2.47;;;0.90;;
21114;SDS011;10715;48.546;9.896;2022-10-16T09:46:00;2.43;;;0.93;;
21114;SDS011;10715;48.546;9.896;2022-10-16T09:48:37;2.80;;;1.00;;
21114;SDS011;10715;48.546;9.896;2022-10-16T09:51:04;1.13;;;0.70;;
21114;SDS011;10715;48.546;9.896;2022-10-16T09:53:39;3.47;;;0.57;;
21114;SDS011;10715;48.546;9.896;2022-10-16T09:56:10;3.50;;;0.87;;
21114;SDS011;10715;48.546;9.896;2022-10-16T09:58:41;1.17;;;0.67;;
21114;SDS011;10715;48.546;9.896;2022-10-16T10:01:13;4.37;;;0.50;;
21114;SDS011;10715;48.546;9.896;2022-10-16T10:03:41;2.23;;;0.67;;
21114;SDS011;10715;48.546;9.896;2022-10-16T10:06:22;0.90;;;0.50;;
21114;SDS011;10715;48.546;9.896;2022-10-16T10:16:43;1.63;;;0.60;;
21114;SDS011;10715;48.546;9.896;2022-10-16T10:25:00;1.73;;;0.70;;
21114;SDS011;10715;48.546;9.896;2022-10-16T10:35:19;0.87;;;0.50;;
21114;SDS011;10715;48.546;9.896;2022-10-16T10:40:30;2.70;;;0.50;;
21114;SDS011;10715;48.546;9.896;2022-10-16T10:45:42;1.20;;;0.70;;
21114;SDS011;10715;48.546;9.896;2022-10-16T10:48:19;2.60;;;1.47;;
21114;SDS011;10715;48.546;9.896;2022-10-16T10:51:04;3.43;;;0.97;;
21114;SDS011;10715;48.546;9.896;2022-10-16T10:57:00;0.80;;;0.53;;
21114;SDS011;10715;48.546;9.896;2022-10-16T11:04:52;3.73;;;0.90;;
21114;SDS011;10715;48.546;9.896;2022-10-16T11:07:28;1.00;;;0.40;;
21114;SDS011;10715;48.546;9.896;2022-10-16T11:10:03;1.43;;;0.90;;
21114;SDS011;10715;48.546;9.896;2022-10-16T11:12:42;1.30;;;1.10;;
21114;SDS011;10715;48.546;9.896;2022-10-16T11:15:28;2.63;;;0.60;;
21114;SDS011;10715;48.546;9.896;2022-10-16T11:18:06;7.80;;;3.27;;
21114;SDS011;10715;48.546;9.896;2022-10-16T11:20:33;4.03;;;0.77;;
21114;SDS011;10715;48.546;9.896;2022-10-16T11:23:14;3.83;;;0.60;;
21114;SDS011;10715;48.546;9.896;2022-10-16T11:25:50;2.00;;;1.20;;
21114;SDS011;10715;48.546;9.896;2022-10-16T11:28:23;1.13;;;0.87;;
21114;SDS011;10715;48.546;9.896;2022-10-16T11:31:09;1.60;;;0.60;;
21114;SDS011;10715;48.546;9.896;2022-10-16T11:36:44;1.23;;;0.50;;
21114;SDS011;10715;48.546;9.896;2022-10-16T11:39:29;1.77;;;0.63;;
21114;SDS011;10715;48.546;9.896;2022-10-16T11:44:35;3.33;;;1.30;;
21114;SDS011;10715;48.546;9.896;2022-10-16T11:50:09;1.07;;;0.57;;
21114;SDS011;10715;48.546;9.896;2022-10-16T11:55:47;1.00;;;0.50;;
21114;SDS011;10715;48.546;9.896;2022-10-16T12:03:29;1.17;;;0.60;;
21114;SDS011;10715;48.546;9.896;2022-10-16T12:06:48;0.90;;;0.50;;
21114;SDS011;10715;48.546;9.896;2022-10-16T12:09:15;0.70;;;0.50;;
21114;SDS011;10715;48.546;9.896;2022-10-16T12:11:53;0.70;;;0.50;;
21114;SDS011;10715;48.546;9.896;2022-10-16T12:14:21;1.00;;;0.50;;
21114;SDS011;10715;48.546;9.896;2022-10-16T12:17:22;0.90;;;0.50;;
21114;SDS011;10715;48.546;9.896;2022-10-16T12:19:59;0.87;;;0.57;;
21114;SDS011;10715;48.546;9.896;2022-10-16T12:22:27;1.00;;;0.47;;
21114;SDS011;10715;48.546;9.896;2022-10-16T12:24:55;0.90;;;0.53;;
21114;SDS011;10715;48.546;9.896;2022-10-16T12:27:29;1.43;;;0.50;;
21114;SDS011;10715;48.546;9.896;2022-10-16T12:29:57;1.10;;;0.50;;
21114;SDS011;10715;48.546;9.896;2022-10-16T12:32:35;0.93;;;0.50;;
21114;SDS011;10715;48.546;9.896;2022-10-16T12:35:04;1.30;;;0.67;;
21114;SDS011;10715;48.546;9.896;2022-10-16T12:37:41;0.90;;;0.50;;
21114;SDS011;10715;48.546;9.896;2022-10-16T12:42:49;3.53;;;0.50;;
21114;SDS011;10715;48.546;9.896;2022-10-16T12:45:29;1.03;;;0.50;;
21114;SDS011;10715;48.546;9.896;2022-10-16T12:47:57;1.33;;;0.60;;
21114;SDS011;10715;48.546;9.896;2022-10-16T12:52:55;0.80;;;0.50;;
21114;SDS011;10715;48.546;9.896;2022-10-16T12:55:22;1.10;;;0.60;;
21114;SDS011;10715;48.546;9.896;2022-10-16T13:01:03;0.70;;;0.40;;
21114;SDS011;10715;48.546;9.896;2022-10-16T13:03:58;0.70;;;0.30;;
21114;SDS011;10715;48.546;9.896;2022-10-16T13:12:01;1.00;;;0.50;;
21114;SDS011;10715;48.546;9.896;2022-10-16T13:25:34;1.20;;;0.50;;
21114;SDS011;10715;48.546;9.896;2022-10-16T13:28:21;0.97;;;0.50;;
21114;SDS011;10715;48.546;9.896;2022-10-16T13:30:52;1.07;;;0.50;;
21114;SDS011;10715;48.546;9.896;2022-10-16T13:33:24;1.87;;;0.50;;
21114;SDS011;10715;48.546;9.896;2022-10-16T13:35:57;0.93;;;0.50;;
21114;SDS011;10715;48.546;9.896;2022-10-16T13:38:25;0.90;;;0.77;;
21114;SDS011;10715;48.546;9.896;2022-10-16T13:43:40;2.10;;;0.50;;
21114;SDS011;10715;48.546;9.896;2022-10-16T13:46:17;0.70;;;0.43;;
21114;SDS011;10715;48.546;9.896;2022-10-16T13:48:57;1.00;;;0.50;;
21114;SDS011;10715;48.546;9.896;2022-10-16T13:51:24;1.37;;;0.60;;
21114;SDS011;10715;48.546;9.896;2022-10-16T13:53:50;1.00;;;0.60;;
21114;SDS011;10715;48.546;9.896;2022-10-16T13:56:19;2.60;;;0.50;;
21114;SDS011;10715;48.546;9.896;2022-10-16T13:58:57;3.67;;;0.60;;
21114;SDS011;10715;48.546;9.896;2022-10-16T14:01:25;2.13;;;0.50;;
21114;SDS011;10715;48.546;9.896;2022-10-16T14:03:59;5.70;;;0.60;;
21114;SDS011;10715;48.546;9.896;2022-10-16T14:06:31;3.23;;;0.60;;
21114;SDS011;10715;48.546;9.896;2022-10-16T14:08:59;2.10;;;0.63;;
21114;SDS011;10715;48.546;9.896;2022-10-16T14:11:30;5.70;;;0.80;;
21114;SDS011;10715;48.546;9.896;2022-10-16T14:13:55;3.07;;;0.50;;
21114;SDS011;10715;48.546;9.896;2022-10-16T14:16:23;5.13;;;0.60;;
21114;SDS011;10715;48.546;9.896;2022-10-16T14:18:56;5.63;;;0.60;;
21114;SDS011;10715;48.546;9.896;2022-10-16T14:21:23;4.70;;;0.60;;
21114;SDS011;10715;48.546;9.896;2022-10-16T14:23:51;1.70;;;0.83;;
21114;SDS011;10715;48.546;9.896;2022-10-16T14:26:18;3.77;;;0.90;;
21114;SDS011;10715;48.546;9.896;2022-10-16T14:28:46;2.20;;;0.50;;
21114;SDS011;10715;48.546;9.896;2022-10-16T14:31:23;1.33;;;0.60;;
21114;SDS011;10715;48.546;9.896;2022-10-16T14:33:50;1.53;;;0.50;;
21114;SDS011;10715;48.546;9.896;2022-10-16T14:36:15;0.73;;;0.50;;
21114;SDS011;10715;48.546;9.896;2022-10-16T14:39:05;0.90;;;0.60;;
21114;SDS011;10715;48.546;9.896;2022-10-16T14:41:31;1.07;;;0.50;;
21114;SDS011;10715;48.546;9.896;2022-10-16T14:44:01;4.00;;;0.60;;
21114;SDS011;10715;48.546;9.896;2022-10-16T14:46:35;0.87;;;0.60;;
21114;SDS011;10715;48.546;9.896;2022-10-16T14:51:34;1.20;;;0.53;;
21114;SDS011;10715;48.546;9.896;2022-10-16T14:54:00;2.77;;;0.50;;
21114;SDS011;10715;48.546;9.896;2022-10-16T14:56:34;6.03;;;0.50;;
21114;SDS011;10715;48.546;9.896;2022-10-16T14:59:37;1.30;;;0.60;;
21114;SDS011;10715;48.546;9.896;2022-10-16T15:05:23;1.00;;;0.60;;
21114;SDS011;10715;48.546;9.896;2022-10-16T15:07:49;2.67;;;0.60;;
21114;SDS011;10715;48.546;9.896;2022-10-16T15:10:16;3.10;;;0.80;;
21114;SDS011;10715;48.546;9.896;2022-10-16T15:12:43;1.40;;;1.03;;
21114;SDS011;10715;48.546;9.896;2022-10-16T15:15:32;5.53;;;0.97;;
21114;SDS011;10715;48.546;9.896;2022-10-16T15:18:00;4.17;;;1.43;;
21114;SDS011;10715;48.546;9.896;2022-10-16T15:20:28;1.80;;;1.00;;
21114;SDS011;10715;48.546;9.896;2022-10-16T15:23:06;1.97;;;0.83;;
21114;SDS011;10715;48.546;9.896;2022-10-16T15:25:53;3.47;;;0.90;;
21114;SDS011;10715;48.546;9.896;2022-10-16T15:28:21;1.83;;;0.87;;
21114;SDS011;10715;48.546;9.896;2022-10-16T15:30:52;2.10;;;0.70;;
21114;SDS011;10715;48.546;9.896;2022-10-16T15:33:20;2.27;;;0.60;;
21114;SDS011;10715;48.546;9.896;2022-10-16T15:35:51;3.20;;;0.60;;
21114;SDS011;10715;48.546;9.896;2022-10-16T15:38:18;2.30;;;0.60;;
21114;SDS011;10715;48.546;9.896;2022-10-16T15:40:45;1.73;;;0.80;;
21114;SDS011;10715;48.546;9.896;2022-10-16T15:43:11;1.67;;;0.67;;
21114;SDS011;10715;48.546;9.896;2022-10-16T15:45:43;2.73;;;0.60;;
21114;SDS011;10715;48.546;9.896;2022-10-16T15:48:17;0.90;;;0.50;;
21114;SDS011;10715;48.546;9.896;2022-10-16T15:50:42;1.43;;;0.60;;
21114;SDS011;10715;48.546;9.896;2022-10-16T15:53:08;1.00;;;0.60;;
21114;SDS011;10715;48.546;9.896;2022-10-16T15:55:37;1.63;;;0.57;;
21114;SDS011;10715;48.546;9.896;2022-10-16T15:58:03;4.27;;;0.80;;
21114;SDS011;10715;48.546;9.896;2022-10-16T16:00:30;4.00;;;0.50;;
21114;SDS011;10715;48.546;9.896;2022-10-16T16:02:59;1.67;;;0.90;;
21114;SDS011;10715;48.546;9.896;2022-10-16T16:05:25;4.67;;;0.70;;
21114;SDS011;10715;48.546;9.896;2022-10-16T16:07:52;3.83;;;0.67;;
21114;SDS011;10715;48.546;9.896;2022-10-16T16:10:18;2.17;;;0.80;;
21114;SDS011;10715;48.546;9.896;2022-10-16T16:12:49;5.60;;;1.07;;
21114;SDS011;10715;48.546;9.896;2022-10-16T16:15:19;1.87;;;0.80;;
21114;SDS011;10715;48.546;9.896;2022-10-16T16:17:48;3.80;;;0.93;;
21114;SDS011;10715;48.546;9.896;2022-10-16T16:20:14;3.83;;;0.70;;
21114;SDS011;10715;48.546;9.896;2022-10-16T16:22:40;1.83;;;1.07;;
21114;SDS011;10715;48.546;9.896;2022-10-16T16:25:09;5.40;;;1.37;;
21114;SDS011;10715;48.546;9.896;2022-10-16T16:27:35;1.87;;;1.13;;
21114;SDS011;10715;48.546;9.896;2022-10-16T16:30:03;3.90;;;0.70;;
21114;SDS011;10715;48.546;9.896;2022-10-16T16:32:32;4.57;;;1.13;;
21114;SDS011;10715;48.546;9.896;2022-10-16T16:34:59;1.63;;;1.20;;
21114;SDS011;10715;48.546;9.896;2022-10-16T16:37:25;3.43;;;1.23;;
21114;SDS011;10715;48.546;9.896;2022-10-16T16:39:51;2.00;;;0.70;;
21114;SDS011;10715;48.546;9.896;2022-10-16T16:42:16;1.83;;;0.70;;
21114;SDS011;10715;48.546;9.896;2022-10-16T16:44:42;1.00;;;0.57;;
21114;SDS011;10715;48.546;9.896;2022-10-16T16:47:08;3.30;;;1.07;;
21114;SDS011;10715;48.546;9.896;2022-10-16T16:49:34;4.20;;;1.13;;
21114;SDS011;10715;48.546;9.896;2022-10-16T16:52:00;3.87;;;1.20;;
21114;SDS011;10715;48.546;9.896;2022-10-16T16:54:26;2.63;;;0.97;;
21114;SDS011;10715;48.546;9.896;2022-10-16T16:56:52;2.47;;;0.90;;
21114;SDS011;10715;48.546;9.896;2022-10-16T16:59:18;1.27;;;0.80;;
21114;SDS011;10715;48.546;9.896;2022-10-16T17:01:46;2.30;;;1.10;;
21114;SDS011;10715;48.546;9.896;2022-10-16T17:04:12;4.43;;;0.80;;
21114;SDS011;10715;48.546;9.896;2022-10-16T17:06:40;10.13;;;4.23;;
21114;SDS011;10715;48.546;9.896;2022-10-16T17:09:06;26.87;;;18.73;;
21114;SDS011;10715;48.546;9.896;2022-10-16T17:11:33;16.20;;;13.27;;
21114;SDS011;10715;48.546;9.896;2022-10-16T17:13:59;10.30;;;7.80;;
21114;SDS011;10715;48.546;9.896;2022-10-16T17:16:27;8.47;;;5.20;;